Time;durP1;ratioP1;P1;durP2;ratioP2;P2;SDS_P1;SDS_P2;PMS_P1;PMS_P2;Temp;Humidity;BMP_temperature;BMP_pressure;BME280_temperature;BME280_humidity;BME280_pressure;Samples;Min_cycle;Max_cycle;Signal;HPM_P1;HPM_P2
2023/03/06 00:02:17;;;;;;;2.45;1.67;;;;;;;;;;5054276;28;20033;-78
2023/03/06 00:04:43;;;;;;;1.95;1.45;;;;;;;;;;5054026;28;20040;-78
2023/03/06 00:07:08;;;;;;;2.90;1.30;;;;;;;;;;5053968;28;20095;-79
2023/03/06 00:09:34;;;;;;;3.42;1.58;;;;;;;;;;5035953;28;20028;-78
2023/03/06 00:11:59;;;;;;;2.28;1.50;;;;;;;;;;5053787;28;20044;-79
2023/03/06 00:14:25;;;;;;;1.80;1.38;;;;;;;;;;5019245;28;20075;-78
2023/03/06 00:16:54;;;;;;;3.63;1.80;;;;;;;;;;5019551;28;20480;-78
2023/03/06 00:19:20;;;;;;;2.58;1.60;;;;;;;;;;5050072;28;20035;-78
2023/03/06 00:21:45;;;;;;;3.88;1.42;;;;;;;;;;5022669;28;20029;-78
2023/03/06 00:24:11;;;;;;;3.00;1.30;;;;;;;;;;5053290;28;20075;-78
2023/03/06 00:26:38;;;;;;;1.80;1.40;;;;;;;;;;5053414;28;20056;-78
2023/03/06 00:29:03;;;;;;;2.25;1.30;;;;;;;;;;5066253;28;20024;-78
2023/03/06 00:31:29;;;;;;;2.38;1.70;;;;;;;;;;5052989;28;20385;-78
2023/03/06 00:33:56;;;;;;;1.70;1.20;;;;;;;;;;5051954;28;20584;-78
2023/03/06 00:36:21;;;;;;;2.00;1.20;;;;;;;;;;5053674;28;20052;-78
2023/03/06 00:38:47;;;;;;;2.90;1.52;;;;;;;;;;5053290;28;20064;-78
2023/03/06 00:41:12;;;;;;;3.53;1.40;;;;;;;;;;5053741;28;20037;-78
2023/03/06 00:43:38;;;;;;;2.03;1.25;;;;;;;;;;5035926;28;20028;-78
2023/03/06 00:46:06;;;;;;;2.58;1.30;;;;;;;;;;5035683;28;20048;-78
2023/03/06 00:48:32;;;;;;;2.20;1.25;;;;;;;;;;5053778;28;20041;-78
2023/03/06 00:50:57;;;;;;;2.72;1.30;;;;;;;;;;5036423;28;20040;-78
2023/03/06 00:53:22;;;;;;;1.92;1.33;;;;;;;;;;5035756;28;20053;-78
2023/03/06 00:55:48;;;;;;;2.20;1.25;;;;;;;;;;5018755;28;20044;-78
2023/03/06 00:58:14;;;;;;;3.15;1.58;;;;;;;;;;5052560;28;20029;-78
2023/03/06 01:00:39;;;;;;;2.83;1.42;;;;;;;;;;5034858;28;20037;-77
2023/03/06 01:03:05;;;;;;;2.15;1.38;;;;;;;;;;5033895;28;20036;-78
2023/03/06 01:05:30;;;;;;;2.75;1.70;;;;;;;;;;5034511;28;20044;-77
2023/03/06 01:07:57;;;;;;;2.13;1.35;;;;;;;;;;5052684;28;20476;-78
2023/03/06 01:10:26;;;;;;;2.80;1.40;;;;;;;;;;5034726;28;20032;-78
2023/03/06 01:12:51;;;;;;;1.98;1.23;;;;;;;;;;5052048;28;20491;-78
2023/03/06 01:15:17;;;;;;;1.92;1.30;;;;;;;;;;5018072;28;20029;-78
2023/03/06 01:17:42;;;;;;;2.13;1.40;;;;;;;;;;5017567;28;20462;-78
2023/03/06 01:20:09;;;;;;;4.65;1.45;;;;;;;;;;5018218;28;20507;-78
2023/03/06 01:22:34;;;;;;;3.40;1.48;;;;;;;;;;5017911;28;20036;-77
2023/03/06 01:25:00;;;;;;;4.18;1.90;;;;;;;;;;5052335;28;20025;-78
2023/03/06 01:27:25;;;;;;;3.05;1.90;;;;;;;;;;5052022;28;20472;-78
2023/03/06 01:29:51;;;;;;;2.30;1.60;;;;;;;;;;5034373;28;20037;-78
2023/03/06 01:32:16;;;;;;;2.83;1.77;;;;;;;;;;5033750;28;20037;-78
2023/03/06 01:34:42;;;;;;;3.83;1.60;;;;;;;;;;5033900;28;20033;-78
2023/03/06 01:37:07;;;;;;;1.90;1.40;;;;;;;;;;5051770;28;20024;-78
2023/03/06 01:39:33;;;;;;;3.30;1.80;;;;;;;;;;5051603;28;20443;-78
2023/03/06 01:41:58;;;;;;;2.88;1.50;;;;;;;;;;5017471;28;20033;-78
2023/03/06 01:44:24;;;;;;;2.88;1.50;;;;;;;;;;5033936;28;20025;-78
2023/03/06 01:46:49;;;;;;;3.17;1.60;;;;;;;;;;5033835;28;20033;-78
2023/03/06 01:49:23;;;;;;;4.20;1.85;;;;;;;;;;5048460;28;20071;-78
2023/03/06 01:51:56;;;;;;;2.63;1.50;;;;;;;;;;5014747;28;20385;-78
2023/03/06 01:54:28;;;;;;;4.35;1.88;;;;;;;;;;5024890;28;20060;-77
2023/03/06 01:56:55;;;;;;;4.82;1.80;;;;;;;;;;5051696;28;20091;-78
2023/03/06 01:59:21;;;;;;;4.32;1.73;;;;;;;;;;5033513;28;20040;-78
2023/03/06 02:01:46;;;;;;;3.25;1.52;;;;;;;;;;5033702;28;20435;-78
2023/03/06 02:04:12;;;;;;;;;;;;;;;;;;5049960;28;20391;-78
2023/03/06 02:06:38;;;;;;;2.95;1.70;;;;;;;;;;5050323;28;19912;-78
2023/03/06 02:09:04;;;;;;;2.55;1.40;;;;;;;;;;5051196;28;20028;-78
2023/03/06 02:11:29;;;;;;;3.17;1.50;;;;;;;;;;5033838;28;20061;-78
2023/03/06 02:13:55;;;;;;;2.67;1.63;;;;;;;;;;5049715;28;20411;-78
2023/03/06 02:16:22;;;;;;;3.28;1.50;;;;;;;;;;5050246;28;20507;-78
2023/03/06 02:18:48;;;;;;;2.78;1.60;;;;;;;;;;5033179;28;20499;-78
2023/03/06 02:21:19;;;;;;;2.55;1.48;;;;;;;;;;5033561;28;20032;-77
2023/03/06 02:24:10;;;;;;;2.60;1.65;;;;;;;;;;5048940;28;20060;-77
2023/03/06 02:26:36;;;;;;;2.63;1.50;;;;;;;;;;5047606;28;20052;-78
2023/03/06 02:29:02;;;;;;;4.30;1.75;;;;;;;;;;5050250;28;20408;-78
2023/03/06 02:31:28;;;;;;;2.75;1.40;;;;;;;;;;5032647;28;20036;-77
2023/03/06 02:34:00;;;;;;;3.40;1.30;;;;;;;;;;5032954;28;20033;-78
2023/03/06 02:36:27;;;;;;;3.10;1.70;;;;;;;;;;5049387;28;20128;-78
2023/03/06 02:38:52;;;;;;;3.03;1.70;;;;;;;;;;5033075;28;20112;-77
2023/03/06 02:41:18;;;;;;;5.30;1.90;;;;;;;;;;5050489;28;20078;-77
2023/03/06 02:43:45;;;;;;;3.22;1.70;;;;;;;;;;5033371;28;20025;-78
2023/03/06 02:46:12;;;;;;;6.20;1.90;;;;;;;;;;5033050;28;20119;-78
2023/03/06 02:48:38;;;;;;;2.85;1.90;;;;;;;;;;5049495;28;20025;-77
2023/03/06 02:51:03;;;;;;;2.47;1.60;;;;;;;;;;5050125;28;20033;-80
2023/03/06 02:53:30;;;;;;;4.43;1.85;;;;;;;;;;5049308;28;20480;-77
2023/03/06 02:55:58;;;;;;;2.83;1.60;;;;;;;;;;5034857;28;20087;-77
2023/03/06 02:58:23;;;;;;;3.90;1.60;;;;;;;;;;5038989;28;20032;-77
2023/03/06 03:00:49;;;;;;;3.38;1.80;;;;;;;;;;5048165;28;20044;-78
2023/03/06 03:03:14;;;;;;;4.03;2.08;;;;;;;;;;5040879;28;20033;-77
2023/03/06 03:05:40;;;;;;;2.75;1.75;;;;;;;;;;5035557;28;20044;-77
2023/03/06 03:08:12;;;;;;;2.75;1.55;;;;;;;;;;5007925;28;20052;-77
2023/03/06 03:10:38;;;;;;;4.28;1.88;;;;;;;;;;5013059;28;20489;-77
2023/03/06 03:13:04;;;;;;;4.45;1.90;;;;;;;;;;5022830;28;20034;-78
2023/03/06 03:15:32;;;;;;;4.78;2.00;;;;;;;;;;5033477;28;20036;-78
2023/03/06 03:17:57;;;;;;;3.50;2.33;;;;;;;;;;5033596;28;20831;-77
2023/03/06 03:20:23;;;;;;;3.80;2.35;;;;;;;;;;5030575;28;20030;-79
2023/03/06 03:22:50;;;;;;;3.88;2.35;;;;;;;;;;5026866;28;20028;-79
2023/03/06 03:25:15;;;;;;;;;;;;;;;;;;5036257;28;20056;-77
2023/03/06 03:27:40;;;;;;;6.32;2.42;;;;;;;;;;5037512;28;19951;-79
2023/03/06 03:30:06;;;;;;;4.85;2.30;;;;;;;;;;5037598;28;20036;-79
2023/03/06 03:32:33;;;;;;;4.22;2.17;;;;;;;;;;5036918;28;20383;-78
2023/03/06 03:34:59;;;;;;;3.33;2.05;;;;;;;;;;5033910;28;20038;-78
2023/03/06 03:37:25;;;;;;;3.83;1.83;;;;;;;;;;5030117;28;20025;-78
2023/03/06 03:39:50;;;;;;;3.35;1.92;;;;;;;;;;5035782;28;20044;-79
2023/03/06 03:42:16;;;;;;;4.85;1.80;;;;;;;;;;5036927;28;20029;-78
2023/03/06 03:44:42;;;;;;;4.03;1.80;;;;;;;;;;5037008;28;20033;-78
2023/03/06 03:47:07;;;;;;;5.75;2.00;;;;;;;;;;5036930;28;20029;-78
2023/03/06 03:49:34;;;;;;;4.85;1.65;;;;;;;;;;5036682;28;20059;-78
2023/03/06 03:52:00;;;;;;;5.15;2.55;;;;;;;;;;5036401;28;20118;-79
2023/03/06 03:54:28;;;;;;;2.88;1.60;;;;;;;;;;5025348;28;20416;-78
2023/03/06 03:56:54;;;;;;;;;;;;;;;;;;5046501;28;20025;-78
2023/03/06 03:59:24;;;;;;;3.55;1.80;;;;;;;;;;5051805;28;19920;-78
2023/03/06 04:02:06;;;;;;;2.97;1.90;;;;;;;;;;5052329;28;20033;-77
2023/03/06 04:04:37;;;;;;;5.25;1.77;;;;;;;;;;5052680;28;20025;-77
2023/03/06 04:07:03;;;;;;;2.33;1.48;;;;;;;;;;5035058;28;20051;-78
2023/03/06 04:09:28;;;;;;;3.60;1.77;;;;;;;;;;5052407;28;20028;-78
2023/03/06 04:11:54;;;;;;;3.15;1.80;;;;;;;;;;5052089;28;20120;-78
2023/03/06 04:14:20;;;;;;;3.85;1.98;;;;;;;;;;5052355;28;20056;-78
2023/03/06 04:16:46;;;;;;;;;;;;;;;;;;5048109;28;20890;-78
2023/03/06 04:19:11;;;;;;;3.42;1.90;;;;;;;;;;5052285;28;19944;-77
2023/03/06 04:21:37;;;;;;;3.70;2.00;;;;;;;;;;5032467;28;20090;-78
2023/03/06 04:24:04;;;;;;;5.22;2.13;;;;;;;;;;5051986;28;20035;-78
2023/03/06 04:26:30;;;;;;;3.65;2.17;;;;;;;;;;5051937;28;20123;-77
2023/03/06 04:28:57;;;;;;;3.13;1.90;;;;;;;;;;5051952;28;20036;-78
2023/03/06 04:31:23;;;;;;;4.50;2.20;;;;;;;;;;5035384;28;20060;-78
2023/03/06 04:33:49;;;;;;;3.85;1.70;;;;;;;;;;5048564;28;20063;-77
2023/03/06 04:36:24;;;;;;;3.47;1.90;;;;;;;;;;5045445;28;20536;-78
2023/03/06 04:38:51;;;;;;;7.63;2.17;;;;;;;;;;5042712;28;20021;-77
2023/03/06 04:41:16;;;;;;;3.60;1.95;;;;;;;;;;5045012;28;20159;-79
2023/03/06 04:43:42;;;;;;;4.32;1.88;;;;;;;;;;5033368;28;20834;-79
2023/03/06 04:46:08;;;;;;;3.40;2.20;;;;;;;;;;5052979;28;20062;-77
2023/03/06 04:48:36;;;;;;;3.47;1.83;;;;;;;;;;5033251;28;20067;-78
2023/03/06 04:51:01;;;;;;;6.35;1.80;;;;;;;;;;5047368;28;20035;-78
2023/03/06 04:53:26;;;;;;;5.03;2.10;;;;;;;;;;5048256;28;20057;-77
2023/03/06 04:55:55;;;;;;;3.70;1.95;;;;;;;;;;5060383;28;20064;-79
2023/03/06 04:58:20;;;;;;;5.25;1.83;;;;;;;;;;5052770;28;20067;-78
2023/03/06 05:00:46;;;;;;;4.30;2.10;;;;;;;;;;5052417;28;20033;-80
2023/03/06 05:03:11;;;;;;;3.55;2.03;;;;;;;;;;5052789;28;20131;-79
2023/03/06 05:05:37;;;;;;;7.15;2.30;;;;;;;;;;5034360;28;20094;-78
2023/03/06 05:08:02;;;;;;;3.85;1.92;;;;;;;;;;5052814;28;20156;-79
2023/03/06 05:10:28;;;;;;;2.58;1.85;;;;;;;;;;5018372;28;20033;-77
2023/03/06 05:12:53;;;;;;;4.82;2.10;;;;;;;;;;5052575;28;20066;-78
2023/03/06 05:15:18;;;;;;;4.47;2.05;;;;;;;;;;5053338;28;20103;-78
2023/03/06 05:17:45;;;;;;;4.80;2.00;;;;;;;;;;5008545;28;20033;-80
2023/03/06 05:20:11;;;;;;;5.55;2.25;;;;;;;;;;5031651;28;20036;-79
2023/03/06 05:22:36;;;;;;;3.80;1.90;;;;;;;;;;5037071;28;20028;-78
2023/03/06 05:25:03;;;;;;;3.35;1.98;;;;;;;;;;5038176;28;20025;-78
2023/03/06 05:27:29;;;;;;;4.32;1.60;;;;;;;;;;5054084;28;20036;-78
2023/03/06 05:29:54;;;;;;;3.92;1.73;;;;;;;;;;5019604;28;20017;-78
2023/03/06 05:32:20;;;;;;;4.85;1.70;;;;;;;;;;5036499;28;20492;-78
2023/03/06 05:34:45;;;;;;;3.22;1.70;;;;;;;;;;5021117;28;20040;-77
2023/03/06 05:37:11;;;;;;;4.47;1.90;;;;;;;;;;5054365;28;20037;-77
2023/03/06 05:39:37;;;;;;;3.80;1.50;;;;;;;;;;5056674;28;20043;-77
2023/03/06 05:42:02;;;;;;;3.33;1.60;;;;;;;;;;5051641;28;20036;-77
2023/03/06 05:44:32;;;;;;;4.40;1.65;;;;;;;;;;5039215;28;20037;-77
2023/03/06 05:46:57;;;;;;;2.60;1.45;;;;;;;;;;5019542;28;20472;-78
2023/03/06 05:49:23;;;;;;;3.13;1.70;;;;;;;;;;5038770;28;20107;-77
2023/03/06 05:51:48;;;;;;;2.65;1.58;;;;;;;;;;5054475;28;20040;-77
2023/03/06 05:54:14;;;;;;;3.65;1.80;;;;;;;;;;5053526;28;20052;-77
2023/03/06 05:56:39;;;;;;;2.90;1.77;;;;;;;;;;5016961;28;20511;-77
2023/03/06 05:59:04;;;;;;;6.80;1.75;;;;;;;;;;5032140;28;20057;-77
2023/03/06 06:01:30;;;;;;;4.15;1.70;;;;;;;;;;5051566;28;20037;-77
2023/03/06 06:03:55;;;;;;;3.28;1.83;;;;;;;;;;5050804;28;20064;-78
2023/03/06 06:06:21;;;;;;;2.58;1.52;;;;;;;;;;5016859;28;20407;-77
2023/03/06 06:08:46;;;;;;;2.30;1.67;;;;;;;;;;5033329;28;20029;-77
2023/03/06 06:11:12;;;;;;;2.53;1.70;;;;;;;;;;5033425;28;20048;-77
2023/03/06 06:13:37;;;;;;;4.72;2.47;;;;;;;;;;5050575;28;20029;-77
2023/03/06 06:16:10;;;;;;;7.22;1.92;;;;;;;;;;5051081;28;20078;-77
2023/03/06 06:18:36;;;;;;;3.97;1.98;;;;;;;;;;5038061;28;20029;-77
2023/03/06 06:21:05;;;;;;;3.67;2.05;;;;;;;;;;5033370;28;20054;-77
2023/03/06 06:23:30;;;;;;;3.10;1.83;;;;;;;;;;5050497;28;20459;-77
2023/03/06 06:25:58;;;;;;;3.72;1.80;;;;;;;;;;5032994;28;20116;-78
2023/03/06 06:28:23;;;;;;;4.57;2.00;;;;;;;;;;5050652;28;20045;-77
2023/03/06 06:30:48;;;;;;;3.55;2.15;;;;;;;;;;5016820;28;20042;-78
2023/03/06 06:33:14;;;;;;;4.25;2.00;;;;;;;;;;5050249;28;20063;-77
2023/03/06 06:35:40;;;;;;;4.18;1.95;;;;;;;;;;5021107;28;20065;-78
2023/03/06 06:38:05;;;;;;;3.55;1.60;;;;;;;;;;5049186;28;20060;-78
2023/03/06 06:40:30;;;;;;;3.67;1.92;;;;;;;;;;5050706;28;20511;-78
2023/03/06 06:42:56;;;;;;;3.63;1.83;;;;;;;;;;5032286;28;20041;-78
2023/03/06 06:45:23;;;;;;;3.92;1.63;;;;;;;;;;5050384;28;20072;-78
2023/03/06 06:47:48;;;;;;;5.18;1.98;;;;;;;;;;5049923;28;20083;-79
2023/03/06 06:50:14;;;;;;;4.40;1.50;;;;;;;;;;5032400;28;20511;-78
2023/03/06 06:52:39;;;;;;;3.38;1.60;;;;;;;;;;5050079;28;20132;-78
2023/03/06 06:55:05;;;;;;;5.13;2.03;;;;;;;;;;5050059;28;20128;-77
2023/03/06 06:57:30;;;;;;;4.38;1.70;;;;;;;;;;5030963;28;20062;-78
2023/03/06 06:59:56;;;;;;;3.83;1.60;;;;;;;;;;5049173;28;20029;-78
2023/03/06 07:02:21;;;;;;;2.75;1.63;;;;;;;;;;5049895;28;20392;-78
2023/03/06 07:04:47;;;;;;;4.68;1.77;;;;;;;;;;5032658;28;20033;-78
2023/03/06 07:07:12;;;;;;;3.95;1.92;;;;;;;;;;5050737;28;20473;-78
2023/03/06 07:09:40;;;;;;;5.28;1.80;;;;;;;;;;5050100;28;20036;-78
2023/03/06 07:12:06;;;;;;;6.30;1.90;;;;;;;;;;5050219;28;20032;-78
2023/03/06 07:14:32;;;;;;;3.45;1.90;;;;;;;;;;5032097;28;20036;-78
2023/03/06 07:16:57;;;;;;;4.97;1.58;;;;;;;;;;5049887;28;20031;-78
2023/03/06 07:19:23;;;;;;;6.95;2.03;;;;;;;;;;5049726;28;20029;-78
2023/03/06 07:21:49;;;;;;;4.05;1.55;;;;;;;;;;5032298;28;20403;-78
2023/03/06 07:24:14;;;;;;;3.05;1.95;;;;;;;;;;5032228;28;20373;-77
2023/03/06 07:26:44;;;;;;;3.22;1.80;;;;;;;;;;5049732;28;20400;-78
2023/03/06 07:29:09;;;;;;;3.85;1.88;;;;;;;;;;5031861;28;20076;-77
2023/03/06 07:31:35;;;;;;;3.92;1.73;;;;;;;;;;5049863;28;20049;-78
2023/03/06 07:34:00;;;;;;;3.35;1.90;;;;;;;;;;5049766;28;20060;-78
2023/03/06 07:36:26;;;;;;;2.92;1.85;;;;;;;;;;5049880;28;20039;-78
2023/03/06 07:38:51;;;;;;;4.13;1.70;;;;;;;;;;5038208;28;20067;-78
2023/03/06 07:41:17;;;;;;;3.15;1.92;;;;;;;;;;5048123;28;20109;-78
2023/03/06 07:43:42;;;;;;;;;;;;;;;;;;5050257;28;20400;-78
2023/03/06 07:46:08;;;;;;;3.83;1.92;;;;;;;;;;5049448;28;19918;-77
2023/03/06 07:48:34;;;;;;;3.30;1.80;;;;;;;;;;5031995;28;20075;-78
2023/03/06 07:51:00;;;;;;;4.28;1.85;;;;;;;;;;5031837;28;20055;-78
2023/03/06 07:53:26;;;;;;;4.90;2.10;;;;;;;;;;5049477;28;20053;-78
2023/03/06 07:55:51;;;;;;;4.78;2.00;;;;;;;;;;5032526;28;20465;-78
2023/03/06 07:58:17;;;;;;;3.40;1.80;;;;;;;;;;5030530;28;20044;-78
2023/03/06 08:00:42;;;;;;;3.70;2.00;;;;;;;;;;5049264;28;20514;-78
2023/03/06 08:03:09;;;;;;;3.15;1.73;;;;;;;;;;5049451;28;20025;-78
2023/03/06 08:05:34;;;;;;;3.67;1.90;;;;;;;;;;5031693;28;20112;-77
2023/03/06 08:07:59;;;;;;;3.05;1.85;;;;;;;;;;5049448;28;20116;-78
2023/03/06 08:10:25;;;;;;;3.50;1.90;;;;;;;;;;5049712;28;20442;-78
2023/03/06 08:12:50;;;;;;;2.78;1.88;;;;;;;;;;5053053;28;20040;-78
2023/03/06 08:15:16;;;;;;;3.17;1.70;;;;;;;;;;5052957;28;20032;-78
2023/03/06 08:17:41;;;;;;;3.65;2.00;;;;;;;;;;5035318;28;20082;-78
2023/03/06 08:20:09;;;;;;;4.43;2.00;;;;;;;;;;5053150;28;20071;-79
2023/03/06 08:22:34;;;;;;;5.95;1.90;;;;;;;;;;5053161;28;20129;-79
2023/03/06 08:25:00;;;;;;;2.70;1.88;;;;;;;;;;5053058;28;20127;-78
2023/03/06 08:27:25;;;;;;;3.58;1.73;;;;;;;;;;5053207;28;20037;-79
2023/03/06 08:29:51;;;;;;;4.25;2.10;;;;;;;;;;5034612;28;20032;-78
2023/03/06 08:32:16;;;;;;;6.82;2.50;;;;;;;;;;5053156;28;20502;-78
2023/03/06 08:34:44;;;;;;;4.63;2.17;;;;;;;;;;5052804;28;20071;-80
2023/03/06 08:37:09;;;;;;;6.05;2.40;;;;;;;;;;5053113;28;20060;-78
2023/03/06 08:39:35;;;;;;;5.25;2.35;;;;;;;;;;5052931;28;20036;-79
2023/03/06 08:42:00;;;;;;;4.20;2.05;;;;;;;;;;5052657;28;20029;-78
2023/03/06 08:44:26;;;;;;;4.55;2.00;;;;;;;;;;5052210;28;20042;-79
2023/03/06 08:46:51;;;;;;;4.60;2.25;;;;;;;;;;5034784;28;20037;-78
2023/03/06 08:49:17;;;;;;;4.30;2.05;;;;;;;;;;5034185;28;20032;-78
2023/03/06 08:51:42;;;;;;;5.30;2.03;;;;;;;;;;5052521;28;20122;-79
2023/03/06 08:54:09;;;;;;;4.60;2.22;;;;;;;;;;5060932;28;20119;-79
2023/03/06 08:56:35;;;;;;;4.55;2.22;;;;;;;;;;5054396;28;20540;-78
2023/03/06 08:59:00;;;;;;;5.88;2.10;;;;;;;;;;5057381;28;20025;-79
2023/03/06 09:01:30;;;;;;;3.45;2.00;;;;;;;;;;5054386;28;20032;-78
2023/03/06 09:03:56;;;;;;;4.88;2.67;;;;;;;;;;5053857;28;20056;-79
2023/03/06 09:06:22;;;;;;;4.03;1.98;;;;;;;;;;5026770;28;20056;-78
2023/03/06 09:08:49;;;;;;;2.65;1.83;;;;;;;;;;5052245;28;20098;-78
2023/03/06 09:11:14;;;;;;;5.70;2.10;;;;;;;;;;5052354;28;20063;-78
2023/03/06 09:13:40;;;;;;;6.97;2.30;;;;;;;;;;5033930;28;20035;-79
2023/03/06 09:16:06;;;;;;;5.68;2.10;;;;;;;;;;5063335;28;20099;-78
2023/03/06 09:18:57;;;;;;;5.82;2.20;;;;;;;;;;5040611;28;20090;-78
2023/03/06 09:21:23;;;;;;;3.55;1.90;;;;;;;;;;5064946;28;20491;-78
2023/03/06 09:23:49;;;;;;;;;;;;;;;;;;5051177;28;20036;-78
2023/03/06 09:26:14;;;;;;;5.03;1.63;;;;;;;;;;5051934;28;20303;-78
2023/03/06 09:28:40;;;;;;;4.13;1.90;;;;;;;;;;5052287;28;20036;-78
2023/03/06 09:31:09;;;;;;;5.93;1.90;;;;;;;;;;5034398;28;20037;-78
2023/03/06 09:33:34;;;;;;;3.17;1.70;;;;;;;;;;5052203;28;20033;-78
2023/03/06 09:36:00;;;;;;;3.35;1.75;;;;;;;;;;5033634;28;20047;-78
2023/03/06 09:38:26;;;;;;;3.17;1.67;;;;;;;;;;5051492;28;20032;-78
2023/03/06 09:41:00;;;;;;;4.65;1.90;;;;;;;;;;5017493;28;20494;-78
2023/03/06 09:43:30;;;;;;;3.63;2.05;;;;;;;;;;5033557;28;20071;-78
2023/03/06 09:45:56;;;;;;;3.47;1.77;;;;;;;;;;5033286;28;20033;-78
2023/03/06 09:48:26;;;;;;;4.28;1.80;;;;;;;;;;5043993;28;20047;-78
2023/03/06 09:50:56;;;;;;;3.47;1.70;;;;;;;;;;5048770;28;20091;-78
2023/03/06 09:53:37;;;;;;;4.57;1.70;;;;;;;;;;5033574;28;20071;-78
2023/03/06 09:56:11;;;;;;;3.92;1.83;;;;;;;;;;5038150;28;20083;-78
2023/03/06 09:58:38;;;;;;;3.40;1.80;;;;;;;;;;5032415;28;20040;-78
2023/03/06 10:01:03;;;;;;;3.65;1.63;;;;;;;;;;5033199;28;20031;-77
2023/03/06 10:03:29;;;;;;;3.92;1.80;;;;;;;;;;5050925;28;20496;-77
2023/03/06 10:05:59;;;;;;;3.75;1.77;;;;;;;;;;5050967;28;20036;-79
2023/03/06 10:08:29;;;;;;;2.55;1.60;;;;;;;;;;5050923;28;20136;-78
2023/03/06 10:11:02;;;;;;;5.25;2.22;;;;;;;;;;5033840;28;20106;-77
2023/03/06 10:13:29;;;;;;;2.88;1.60;;;;;;;;;;5051023;28;20507;-79
2023/03/06 10:16:00;;;;;;;4.57;1.58;;;;;;;;;;5033143;28;20017;-79
2023/03/06 10:18:26;;;;;;;3.75;1.60;;;;;;;;;;5016489;28;20029;-79
2023/03/06 10:20:53;;;;;;;3.22;1.60;;;;;;;;;;5033058;28;20119;-78
2023/03/06 10:23:23;;;;;;;3.05;1.70;;;;;;;;;;5032694;28;20033;-78
2023/03/06 10:25:54;;;;;;;5.45;1.63;;;;;;;;;;5050582;28;20108;-78
2023/03/06 10:28:23;;;;;;;2.55;1.30;;;;;;;;;;5015742;28;20407;-78
2023/03/06 10:30:51;;;;;;;4.07;1.58;;;;;;;;;;5032886;28;20029;-78
2023/03/06 10:33:20;;;;;;;3.35;1.48;;;;;;;;;;5032338;28;20648;-79
2023/03/06 10:35:49;;;;;;;3.75;1.65;;;;;;;;;;5032851;28;20029;-78
2023/03/06 10:38:25;;;;;;;3.72;1.70;;;;;;;;;;5032765;28;20032;-78
2023/03/06 10:41:13;;;;;;;3.47;1.40;;;;;;;;;;5032544;28;20037;-78
2023/03/06 10:43:40;;;;;;;2.58;1.15;;;;;;;;;;5037190;28;20040;-78
2023/03/06 10:46:06;;;;;;;3.35;1.48;;;;;;;;;;5032390;28;20024;-78
2023/03/06 10:48:34;;;;;;;3.40;1.35;;;;;;;;;;5016120;28;20110;-78
2023/03/06 10:51:19;;;;;;;2.63;1.38;;;;;;;;;;5032971;28;20492;-79
2023/03/06 10:53:51;;;;;;;3.53;1.60;;;;;;;;;;5049799;28;20448;-78
2023/03/06 10:56:36;;;;;;;2.60;1.50;;;;;;;;;;5050293;28;20438;-79
2023/03/06 10:59:12;;;;;;;3.50;1.63;;;;;;;;;;5048337;28;20495;-79
2023/03/06 11:01:44;;;;;;;3.55;1.33;;;;;;;;;;5016096;28;20396;-79
2023/03/06 11:04:13;;;;;;;2.80;1.23;;;;;;;;;;5050417;28;20029;-79
2023/03/06 11:06:38;;;;;;;3.45;2.13;;;;;;;;;;5032134;28;20036;-79
2023/03/06 11:09:23;;;;;;;2.53;1.30;;;;;;;;;;5032516;28;20465;-79
2023/03/06 11:11:49;;;;;;;4.75;1.42;;;;;;;;;;5032066;28;20041;-80
2023/03/06 11:14:15;;;;;;;5.07;1.50;;;;;;;;;;5050152;28;20029;-80
2023/03/06 11:16:50;;;;;;;3.45;1.67;;;;;;;;;;5015384;28;20095;-81
2023/03/06 11:19:21;;;;;;;3.88;1.63;;;;;;;;;;5033439;28;20025;-80
2023/03/06 11:22:02;;;;;;;2.58;1.42;;;;;;;;;;5015191;28;20039;-80
2023/03/06 11:24:38;;;;;;;3.55;1.80;;;;;;;;;;5050495;28;20567;-80
2023/03/06 11:27:22;;;;;;;2.25;1.50;;;;;;;;;;5020687;28;20123;-79
2023/03/06 11:29:48;;;;;;;3.70;1.67;;;;;;;;;;5049656;28;20488;-80
2023/03/06 11:32:23;;;;;;;2.55;1.42;;;;;;;;;;5032099;28;20083;-80
2023/03/06 11:34:50;;;;;;;3.72;1.50;;;;;;;;;;5031865;28;20047;-81
2023/03/06 11:37:15;;;;;;;5.65;1.52;;;;;;;;;;5032468;28;20142;-80
2023/03/06 11:39:42;;;;;;;3.38;1.40;;;;;;;;;;5049690;28;20139;-80
2023/03/06 11:42:10;;;;;;;3.35;1.50;;;;;;;;;;5032364;28;20120;-81
2023/03/06 11:44:39;;;;;;;5.00;1.80;;;;;;;;;;5049785;28;20068;-81
2023/03/06 11:47:13;;;;;;;2.75;1.30;;;;;;;;;;5052991;28;20031;-80
2023/03/06 11:49:40;;;;;;;3.67;1.58;;;;;;;;;;5041930;28;20029;-81
2023/03/06 11:52:05;;;;;;;;;;;;;;;;;;5036261;28;20021;-80
2023/03/06 11:54:31;;;;;;;3.15;1.20;;;;;;;;;;5053564;28;20462;-81
2023/03/06 11:57:13;;;;;;;3.33;1.30;;;;;;;;;;5053629;28;20083;-80
2023/03/06 11:59:39;;;;;;;2.88;1.50;;;;;;;;;;5005466;28;20044;-80
2023/03/06 12:02:11;;;;;;;4.57;1.42;;;;;;;;;;5031435;28;20021;-79
2023/03/06 12:04:40;;;;;;;2.15;1.33;;;;;;;;;;5035717;28;20487;-79
2023/03/06 12:07:15;;;;;;;2.95;1.40;;;;;;;;;;5053319;28;20391;-79
2023/03/06 12:09:43;;;;;;;3.00;1.40;;;;;;;;;;5035682;28;20353;-81
2023/03/06 12:12:28;;;;;;;3.80;1.45;;;;;;;;;;5035203;28;20016;-80
2023/03/06 12:15:06;;;;;;;2.60;1.40;;;;;;;;;;5053337;28;20045;-81
2023/03/06 12:17:34;;;;;;;3.25;1.30;;;;;;;;;;5053405;28;20055;-80
2023/03/06 12:20:00;;;;;;;2.80;1.15;;;;;;;;;;5035090;28;20395;-79
2023/03/06 12:22:29;;;;;;;4.95;1.65;;;;;;;;;;5035359;28;20037;-79
2023/03/06 12:24:54;;;;;;;2.75;1.48;;;;;;;;;;5018339;28;20078;-78
2023/03/06 12:27:39;;;;;;;3.08;1.70;;;;;;;;;;5035389;28;20455;-78
2023/03/06 12:30:13;;;;;;;2.38;1.40;;;;;;;;;;5035173;28;20083;-78
2023/03/06 12:32:44;;;;;;;2.70;1.40;;;;;;;;;;5034916;28;20095;-79
2023/03/06 12:35:28;;;;;;;3.22;1.75;;;;;;;;;;5052919;28;20041;-79
2023/03/06 12:38:12;;;;;;;4.03;1.77;;;;;;;;;;5052501;28;20033;-79
2023/03/06 12:40:38;;;;;;;3.03;1.50;;;;;;;;;;5053059;28;20052;-79
2023/03/06 12:43:22;;;;;;;3.67;1.77;;;;;;;;;;5052453;28;20024;-79
2023/03/06 12:45:48;;;;;;;2.85;1.40;;;;;;;;;;5052590;28;20061;-79
2023/03/06 12:48:15;;;;;;;4.00;1.55;;;;;;;;;;5034997;28;20059;-79
2023/03/06 12:50:43;;;;;;;4.22;1.67;;;;;;;;;;5034811;28;20041;-79
2023/03/06 12:53:14;;;;;;;4.32;1.80;;;;;;;;;;5035162;28;20024;-80
2023/03/06 12:55:41;;;;;;;3.70;1.83;;;;;;;;;;5017761;28;20036;-80
2023/03/06 12:58:25;;;;;;;5.65;1.90;;;;;;;;;;5032520;28;20029;-81
2023/03/06 13:01:04;;;;;;;3.72;2.00;;;;;;;;;;5052258;28;20040;-79
2023/03/06 13:03:30;;;;;;;4.45;1.83;;;;;;;;;;5034645;28;20068;-79
2023/03/06 13:06:24;;;;;;;3.63;1.52;;;;;;;;;;5034513;28;20079;-81
2023/03/06 13:08:55;;;;;;;4.75;1.92;;;;;;;;;;4963951;28;20055;-79
2023/03/06 13:11:30;;;;;;;3.35;1.70;;;;;;;;;;5034204;28;20463;-79
2023/03/06 13:13:55;;;;;;;3.35;1.63;;;;;;;;;;5033803;28;20041;-80
2023/03/06 13:16:30;;;;;;;3.35;1.50;;;;;;;;;;5051928;28;20037;-80
2023/03/06 13:19:14;;;;;;;3.90;1.67;;;;;;;;;;5001732;28;20033;-79
2023/03/06 13:21:40;;;;;;;2.30;1.30;;;;;;;;;;5052014;28;20028;-79
2023/03/06 13:24:15;;;;;;;3.15;1.90;;;;;;;;;;5051997;28;20044;-79
2023/03/06 13:26:41;;;;;;;4.37;2.33;;;;;;;;;;5034561;28;20123;-79
2023/03/06 13:29:42;;;;;;;4.07;1.83;;;;;;;;;;5052260;28;20547;-80
2023/03/06 13:32:17;;;;;;;3.10;1.70;;;;;;;;;;4951663;28;20043;-78
2023/03/06 13:34:45;;;;;;;4.45;1.90;;;;;;;;;;5007449;28;20187;-81
2023/03/06 13:37:22;;;;;;;5.10;2.17;;;;;;;;;;5033798;28;20488;-80
2023/03/06 13:39:53;;;;;;;4.10;1.88;;;;;;;;;;5033509;28;20033;-80
2023/03/06 13:42:38;;;;;;;4.05;1.90;;;;;;;;;;5051183;28;20082;-79
2023/03/06 13:45:16;;;;;;;3.40;1.90;;;;;;;;;;5033756;28;20091;-80
2023/03/06 13:47:53;;;;;;;3.55;1.52;;;;;;;;;;5051235;28;20438;-79
2023/03/06 13:50:23;;;;;;;4.53;2.13;;;;;;;;;;5051290;28;20439;-79
2023/03/06 13:52:56;;;;;;;5.72;2.00;;;;;;;;;;5038649;28;20137;-78
2023/03/06 13:55:41;;;;;;;4.75;2.70;;;;;;;;;;5033261;28;20032;-78
2023/03/06 13:58:06;;;;;;;3.95;2.15;;;;;;;;;;5050240;28;20041;-80
2023/03/06 14:00:31;;;;;;;5.43;2.45;;;;;;;;;;5033164;28;20500;-80
2023/03/06 14:03:09;;;;;;;3.90;1.90;;;;;;;;;;5051141;28;20029;-79
2023/03/06 14:05:45;;;;;;;5.35;2.25;;;;;;;;;;5051139;28;20120;-79
2023/03/06 14:08:13;;;;;;;3.97;2.20;;;;;;;;;;5049595;28;20025;-79
2023/03/06 14:10:39;;;;;;;3.42;2.10;;;;;;;;;;5029690;28;20052;-79
2023/03/06 14:13:05;;;;;;;3.55;2.13;;;;;;;;;;5026432;28;20114;-79
2023/03/06 14:15:44;;;;;;;4.05;2.03;;;;;;;;;;5033102;28;20028;-79
2023/03/06 14:18:28;;;;;;;;;;;;;;;;;;5050945;28;20396;-78
2023/03/06 14:20:55;;;;;;;4.68;2.42;;;;;;;;;;5051176;28;19912;-78
2023/03/06 14:23:32;;;;;;;4.25;2.13;;;;;;;;;;5049500;28;20029;-80
2023/03/06 14:26:16;;;;;;;4.78;2.08;;;;;;;;;;5050748;28;20037;-79
2023/03/06 14:28:42;;;;;;;4.55;1.73;;;;;;;;;;5039246;28;20037;-77
2023/03/06 14:31:31;;;;;;;3.72;2.00;;;;;;;;;;5033005;28;20111;-79
2023/03/06 14:33:57;;;;;;;3.47;1.60;;;;;;;;;;5042467;28;20530;-80
2023/03/06 14:36:35;;;;;;;3.60;1.70;;;;;;;;;;5049369;28;20029;-79
2023/03/06 14:39:03;;;;;;;3.95;1.70;;;;;;;;;;5049150;28;20432;-79
2023/03/06 14:41:31;;;;;;;2.92;1.50;;;;;;;;;;5050727;28;20483;-78
2023/03/06 14:44:12;;;;;;;6.00;1.65;;;;;;;;;;5050463;28;20052;-78
2023/03/06 14:46:38;;;;;;;3.55;1.40;;;;;;;;;;5050510;28;20033;-78
2023/03/06 14:49:06;;;;;;;2.78;1.80;;;;;;;;;;5048972;28;20028;-78
2023/03/06 14:51:33;;;;;;;2.92;1.48;;;;;;;;;;5024087;28;20037;-78
2023/03/06 14:53:59;;;;;;;3.83;1.92;;;;;;;;;;5027705;28;20045;-78